Time,TemperatureF,DewpointF,PressureIn,WindDirection,WindDirectionDegrees,WindSpeedMPH,WindSpeedGustMPH,Humidity,HourlyPrecipIn,Conditions,Clouds,dailyrainin,SoftwareType,DateUTC
2013-04-19 00:01:00,52.0,44.0,30.36,SW,226,0.0,13.0,75,0.00,,,0.01,,2013-04-19 07:01:00,
2013-04-19 00:11:00,52.0,46.0,30.37,WSW,242,9.0,12.0,79,0.00,,,0.01,,2013-04-19 07:11:00,
2013-04-19 00:21:00,52.0,46.0,30.37,WSW,242,9.0,12.0,79,0.00,,,0.01,,2013-04-19 07:21:00,
2013-04-19 00:31:00,51.0,47.0,30.35,SW,226,12.0,15.0,85,0.00,,,0.01,,2013-04-19 07:31:00,
2013-04-19 00:41:00,51.0,46.0,30.35,SW,232,6.0,15.0,84,0.00,,,0.01,,2013-04-19 07:41:00,
2013-04-19 00:52:00,51.0,46.0,30.35,SW,232,6.0,15.0,84,0.00,,,0.01,,2013-04-19 07:52:00,
2013-04-19 01:02:00,51.0,46.0,30.36,SW,225,5.0,11.0,83,0.00,,,0.01,,2013-04-19 08:02:00,
2013-04-19 01:12:00,51.0,47.0,30.35,SSW,212,6.0,11.0,85,0.00,,,0.01,,2013-04-19 08:12:00,
2013-04-19 01:21:00,51.0,47.0,30.35,SSW,212,6.0,11.0,85,0.00,,,0.01,,2013-04-19 08:21:00,
2013-04-19 01:32:00,51.0,47.0,30.35,SW,229,7.0,11.0,85,0.00,,,0.01,,2013-04-19 08:32:00,
2013-04-19 01:41:00,51.0,47.0,30.34,SW,222,7.0,10.0,85,0.00,,,0.01,,2013-04-19 08:41:00,
2013-04-19 01:52:00,51.0,47.0,30.34,SW,222,7.0,10.0,85,0.00,,,0.01,,2013-04-19 08:52:00,
2013-04-19 02:01:00,51.0,47.0,30.35,South,172,7.0,12.0,86,0.00,,,0.01,,2013-04-19 09:01:00,
2013-04-19 02:11:00,51.0,47.0,30.33,South,190,9.0,15.0,86,0.00,,,0.01,,2013-04-19 09:11:00,
2013-04-19 02:21:00,51.0,47.0,30.33,South,190,9.0,15.0,86,0.00,,,0.01,,2013-04-19 09:21:00,
2013-04-19 02:32:00,51.0,47.0,30.32,SSW,193,11.0,17.0,86,0.00,,,0.01,,2013-04-19 09:32:00,
2013-04-19 02:42:00,51.0,47.0,30.32,SSW,193,11.0,17.0,86,0.00,,,0.01,,2013-04-19 09:42:00,
2013-04-19 02:52:00,51.0,47.0,30.31,South,175,8.0,17.0,85,0.00,,,0.01,,2013-04-19 09:52:00,
2013-04-19 03:02:00,51.0,46.0,30.31,South,189,9.0,18.0,84,0.00,,,0.01,,2013-04-19 10:02:00,
2013-04-19 03:13:00,51.0,47.0,30.31,South,186,9.0,18.0,86,0.00,,,0.01,,2013-04-19 10:13:00,
2013-04-19 03:23:00,51.0,47.0,30.31,South,186,9.0,18.0,86,0.00,,,0.01,,2013-04-19 10:23:00,
2013-04-19 03:33:00,51.0,47.0,30.29,SSE,158,9.0,19.0,85,0.00,,,0.01,,2013-04-19 10:33:00,
2013-04-19 03:42:00,51.0,47.0,30.29,South,172,11.0,20.0,87,0.00,,,0.01,,2013-04-19 10:42:00,
2013-04-19 03:52:00,51.0,47.0,30.29,South,172,11.0,20.0,87,0.00,,,0.01,,2013-04-19 10:52:00,
2013-04-19 04:02:00,51.0,48.0,30.28,SSE,163,12.0,20.0,88,0.00,,,0.01,,2013-04-19 11:02:00,
2013-04-19 04:11:00,51.0,48.0,30.28,SSE,151,15.0,23.0,88,0.00,,,0.01,,2013-04-19 11:11:00,
2013-04-19 04:21:00,51.0,48.0,30.28,SSE,151,15.0,23.0,88,0.00,,,0.01,,2013-04-19 11:21:00,
2013-04-19 04:32:00,51.0,47.0,30.27,SSE,159,14.0,24.0,87,0.00,,,0.01,,2013-04-19 11:32:00,
2013-04-19 04:42:00,51.0,47.0,30.27,SSE,159,14.0,24.0,87,0.00,,,0.01,,2013-04-19 11:42:00,
2013-04-19 04:52:00,51.0,47.0,30.26,South,169,19.0,28.0,87,0.00,,,0.01,,2013-04-19 11:52:00,
2013-04-19 05:02:00,51.0,48.0,30.25,South,175,20.0,26.0,89,0.00,,,0.01,,2013-04-19 12:02:00,
2013-04-19 05:12:00,51.0,47.0,30.22,SSE,163,16.0,28.0,86,0.00,,,0.01,,2013-04-19 12:12:00,
2013-04-19 05:22:00,51.0,47.0,30.22,SSE,163,16.0,28.0,86,0.00,,,0.01,,2013-04-19 12:22:00,
2013-04-19 05:32:00,51.0,45.0,30.22,SSE,168,15.0,29.0,79,0.00,,,0.02,,2013-04-19 12:32:00,
2013-04-19 05:42:00,51.0,45.0,30.22,SSE,168,15.0,29.0,79,0.00,,,0.02,,2013-04-19 12:42:00,
2013-04-19 05:52:00,51.0,46.0,30.22,SE,128,14.0,30.0,84,0.01,,,0.02,,2013-04-19 12:52:00,
2013-04-19 06:01:00,51.0,45.0,30.24,SSE,155,11.0,24.0,80,0.02,,,0.03,,2013-04-19 13:01:00,
2013-04-19 06:11:00,51.0,44.0,30.21,SW,222,16.0,24.0,76,0.03,,,0.04,,2013-04-19 13:11:00,
2013-04-19 06:21:00,51.0,44.0,30.21,SW,222,16.0,24.0,76,0.03,,,0.04,,2013-04-19 13:21:00,
2013-04-19 06:32:00,51.0,45.0,30.21,SSW,194,16.0,27.0,80,0.04,,,0.05,,2013-04-19 13:32:00,
2013-04-19 06:41:00,51.0,46.0,30.21,SSE,147,14.0,28.0,84,0.04,,,0.06,,2013-04-19 13:41:00,
2013-04-19 06:52:00,51.0,46.0,30.21,SSE,147,14.0,28.0,84,0.04,,,0.06,,2013-04-19 13:52:00,
2013-04-19 07:01:00,51.0,46.0,30.21,SE,128,12.0,29.0,84,0.05,,,0.08,,2013-04-19 14:01:00,
2013-04-19 07:11:00,51.0,47.0,30.22,SSE,163,15.0,32.0,85,0.04,,,0.08,,2013-04-19 14:11:00,
2013-04-19 07:21:00,51.0,47.0,30.22,SSE,163,15.0,32.0,85,0.04,,,0.08,,2013-04-19 14:21:00,
2013-04-19 07:31:00,51.0,47.0,30.22,SE,141,14.0,28.0,86,0.04,,,0.09,,2013-04-19 14:31:00,
2013-04-19 07:42:00,51.0,47.0,30.22,SE,141,14.0,28.0,86,0.04,,,0.09,,2013-04-19 14:42:00,
2013-04-19 07:52:00,52.0,49.0,30.23,SSE,156,9.0,29.0,88,0.03,,,0.09,,2013-04-19 14:52:00,
2013-04-19 08:01:00,52.0,49.0,30.22,South,190,12.0,22.0,88,0.02,,,0.09,,2013-04-19 15:01:00,
2013-04-19 08:11:00,52.0,47.0,30.23,SSE,165,9.0,19.0,83,0.01,,,0.10,,2013-04-19 15:11:00,
2013-04-19 08:21:00,52.0,47.0,30.23,SSE,165,9.0,19.0,83,0.01,,,0.10,,2013-04-19 15:21:00,
2013-04-19 08:33:00,52.0,49.0,30.22,SW,225,10.0,19.0,88,0.01,,,0.10,,2013-04-19 15:33:00,
2013-04-19 08:42:00,52.0,49.0,30.22,SW,225,10.0,19.0,88,0.01,,,0.10,,2013-04-19 15:42:00,
2013-04-19 08:52:00,52.0,48.0,30.22,SW,233,15.0,23.0,85,0.01,,,0.10,,2013-04-19 15:52:00,
2013-04-19 09:02:00,52.0,48.0,30.22,SW,235,13.0,28.0,85,0.01,,,0.10,,2013-04-19 16:02:00,
2013-04-19 09:12:00,52.0,49.0,30.22,WSW,254,13.0,24.0,89,0.01,,,0.10,,2013-04-19 16:12:00,
2013-04-19 09:22:00,52.0,49.0,30.22,WSW,254,13.0,24.0,89,0.01,,,0.10,,2013-04-19 16:22:00,
2013-04-19 09:32:00,52.0,49.0,30.22,SW,226,18.0,25.0,89,0.00,,,0.10,,2013-04-19 16:32:00,
2013-04-19 09:42:00,52.0,48.0,30.21,SW,231,18.0,25.0,87,0.00,,,0.10,,2013-04-19 16:42:00,
2013-04-19 09:52:00,52.0,48.0,30.21,SW,231,18.0,25.0,87,0.00,,,0.10,,2013-04-19 16:52:00,
2013-04-19 10:02:00,52.0,48.0,30.22,West,270,17.0,26.0,87,0.00,,,0.10,,2013-04-19 17:02:00,
2013-04-19 10:11:00,52.0,48.0,30.22,West,270,17.0,26.0,87,0.00,,,0.10,,2013-04-19 17:11:00,
2013-04-19 10:21:00,52.0,48.0,30.22,WSW,242,16.0,28.0,85,0.00,,,0.10,,2013-04-19 17:21:00,
2013-04-19 10:32:00,52.0,48.0,30.22,WSW,253,19.0,28.0,86,0.00,,,0.10,,2013-04-19 17:32:00,
2013-04-19 10:42:00,52.0,48.0,30.22,WSW,253,19.0,28.0,86,0.00,,,0.10,,2013-04-19 17:42:00,
2013-04-19 10:52:00,51.0,48.0,30.22,WSW,256,17.0,28.0,89,0.00,,,0.10,,2013-04-19 17:52:00,
2013-04-19 11:01:00,51.0,47.0,30.22,West,259,18.0,25.0,87,0.00,,,0.10,,2013-04-19 18:01:00,
2013-04-19 11:13:00,51.0,47.0,30.22,West,259,18.0,25.0,87,0.00,,,0.10,,2013-04-19 18:13:00,
2013-04-19 11:22:00,51.0,47.0,30.24,West,260,15.0,26.0,86,0.01,,,0.11,,2013-04-19 18:22:00,
2013-04-19 11:32:00,51.0,47.0,30.26,West,277,20.0,26.0,87,0.01,,,0.11,,2013-04-19 18:32:00,
2013-04-19 11:42:00,51.0,47.0,30.26,West,277,20.0,26.0,87,0.01,,,0.11,,2013-04-19 18:42:00,
2013-04-19 11:52:00,51.0,46.0,30.26,West,267,15.0,26.0,84,0.01,,,0.11,,2013-04-19 18:52:00,
2013-04-19 12:01:00,51.0,49.0,30.27,West,273,15.0,26.0,93,0.01,,,0.11,,2013-04-19 19:01:00,
2013-04-19 12:11:00,51.0,49.0,30.27,West,268,17.0,22.0,93,0.00,,,0.11,,2013-04-19 19:11:00,
2013-04-19 12:21:00,51.0,49.0,30.27,West,268,17.0,22.0,93,0.00,,,0.11,,2013-04-19 19:21:00,
2013-04-19 12:31:00,51.0,49.0,30.28,West,260,16.0,24.0,94,0.00,,,0.11,,2013-04-19 19:31:00,
2013-04-19 12:41:00,51.0,49.0,30.28,West,260,16.0,24.0,94,0.00,,,0.11,,2013-04-19 19:41:00,
2013-04-19 12:52:00,52.0,49.0,30.28,West,271,14.0,17.0,89,0.00,,,0.11,,2013-04-19 19:52:00,
2013-04-19 13:01:00,51.0,49.0,30.28,West,271,13.0,18.0,92,0.00,,,0.11,,2013-04-19 20:01:00,
2013-04-19 13:11:00,51.0,48.0,30.29,WNW,294,13.0,19.0,91,0.00,,,0.11,,2013-04-19 20:11:00,
2013-04-19 13:21:00,51.0,48.0,30.29,WNW,294,13.0,19.0,91,0.00,,,0.11,,2013-04-19 20:21:00,
2013-04-19 13:31:00,51.0,49.0,30.28,West,271,14.0,18.0,93,0.00,,,0.11,,2013-04-19 20:31:00,
2013-04-19 13:41:00,51.0,47.0,30.29,WSW,256,12.0,18.0,86,0.00,,,0.11,,2013-04-19 20:41:00,
2013-04-19 13:51:00,51.0,47.0,30.29,WSW,256,12.0,18.0,86,0.00,,,0.11,,2013-04-19 20:51:00,
2013-04-19 14:01:00,51.0,48.0,30.29,WSW,239,11.0,18.0,90,0.00,,,0.11,,2013-04-19 21:01:00,
2013-04-19 14:11:00,51.0,49.0,30.28,West,260,13.0,17.0,94,0.00,,,0.11,,2013-04-19 21:11:00,
2013-04-19 14:21:00,51.0,49.0,30.28,West,260,13.0,17.0,94,0.00,,,0.11,,2013-04-19 21:21:00,
2013-04-19 14:32:00,51.0,46.0,30.29,WSW,238,12.0,17.0,82,0.00,,,0.11,,2013-04-19 21:32:00,
2013-04-19 14:42:00,51.0,46.0,30.29,WSW,238,12.0,17.0,82,0.00,,,0.11,,2013-04-19 21:42:00,
2013-04-19 14:52:00,51.0,49.0,30.29,West,277,11.0,19.0,92,0.00,,,0.11,,2013-04-19 21:52:00,
2013-04-19 15:02:00,51.0,49.0,30.29,WSW,240,8.0,16.0,92,0.00,,,0.11,,2013-04-19 22:02:00,
2013-04-19 15:12:00,51.0,49.0,30.29,WSW,245,9.0,12.0,93,0.00,,,0.11,,2013-04-19 22:12:00,
2013-04-19 15:22:00,51.0,49.0,30.29,WSW,245,9.0,12.0,93,0.00,,,0.11,,2013-04-19 22:22:00,
2013-04-19 15:33:00,51.0,49.0,30.30,WSW,254,10.0,13.0,93,0.00,,,0.11,,2013-04-19 22:33:00,
2013-04-19 15:41:00,51.0,48.0,30.30,SW,217,8.0,15.0,89,0.00,,,0.11,,2013-04-19 22:41:00,
2013-04-19 15:52:00,51.0,48.0,30.30,SW,217,8.0,15.0,89,0.00,,,0.11,,2013-04-19 22:52:00,
2013-04-19 16:02:00,51.0,48.0,30.30,WSW,243,10.0,14.0,88,0.00,,,0.11,,2013-04-19 23:02:00,
2013-04-19 16:11:00,51.0,49.0,30.30,WSW,256,8.0,13.0,92,0.00,,,0.11,,2013-04-19 23:11:00,
2013-04-19 16:21:00,51.0,49.0,30.30,WSW,256,8.0,13.0,92,0.00,,,0.11,,2013-04-19 23:21:00,
2013-04-19 16:31:00,51.0,49.0,30.31,WSW,245,8.0,14.0,93,0.00,,,0.11,,2013-04-19 23:31:00,
2013-04-19 16:42:00,51.0,49.0,30.31,WSW,245,8.0,14.0,93,0.00,,,0.11,,2013-04-19 23:42:00,
2013-04-19 16:52:00,51.0,49.0,30.31,West,277,4.0,14.0,93,0.00,,,0.11,,2013-04-19 23:52:00,
2013-04-19 17:01:00,51.0,48.0,30.31,WSW,252,10.0,14.0,90,0.00,,,0.11,,2013-04-20 00:01:00,
2013-04-19 17:11:00,51.0,48.0,30.30,WSW,250,10.0,13.0,89,0.00,,,0.11,,2013-04-20 00:11:00,
2013-04-19 17:21:00,51.0,48.0,30.30,WSW,250,10.0,13.0,89,0.00,,,0.11,,2013-04-20 00:21:00,
2013-04-19 17:31:00,51.0,49.0,30.30,WSW,256,7.0,13.0,93,0.00,,,0.11,,2013-04-20 00:31:00,
2013-04-19 17:41:00,51.0,49.0,30.30,WSW,256,7.0,13.0,93,0.00,,,0.11,,2013-04-20 00:41:00,
2013-04-19 17:51:00,51.0,49.0,30.31,WSW,250,9.0,12.0,92,0.00,,,0.11,,2013-04-20 00:51:00,
2013-04-19 18:01:00,51.0,48.0,30.30,WSW,245,7.0,13.0,91,0.00,,,0.11,,2013-04-20 01:01:00,
2013-04-19 18:11:00,51.0,48.0,30.30,WSW,245,7.0,13.0,91,0.00,,,0.11,,2013-04-20 01:11:00,
2013-04-19 18:21:00,51.0,48.0,30.31,WSW,245,6.0,10.0,91,0.00,,,0.11,,2013-04-20 01:21:00,
2013-04-19 18:32:00,51.0,48.0,30.31,West,264,8.0,9.0,89,0.00,,,0.11,,2013-04-20 01:32:00,
2013-04-19 18:41:00,51.0,48.0,30.31,West,264,8.0,9.0,89,0.00,,,0.11,,2013-04-20 01:41:00,
2013-04-19 18:52:00,51.0,49.0,30.31,WNW,284,6.0,10.0,92,0.00,,,0.11,,2013-04-20 01:52:00,
2013-04-19 19:01:00,51.0,48.0,30.31,WNW,284,2.0,10.0,91,0.00,,,0.11,,2013-04-20 02:01:00,
2013-04-19 19:11:00,51.0,47.0,30.30,West,270,0.0,9.0,85,0.00,,,0.11,,2013-04-20 02:11:00,
2013-04-19 19:21:00,51.0,47.0,30.30,West,270,0.0,9.0,85,0.00,,,0.11,,2013-04-20 02:21:00,
2013-04-19 19:31:00,50.0,48.0,30.30,West,281,8.0,12.0,92,0.00,,,0.11,,2013-04-20 02:31:00,
2013-04-19 19:42:00,50.0,48.0,30.30,West,281,8.0,12.0,92,0.00,,,0.11,,2013-04-20 02:42:00,
2013-04-19 19:52:00,50.0,48.0,30.31,West,264,7.0,11.0,93,0.00,,,0.11,,2013-04-20 02:52:00,
2013-04-19 20:01:00,51.0,47.0,30.31,West,261,7.0,12.0,87,0.01,,,0.11,,2013-04-20 03:01:00,
2013-04-19 20:11:00,51.0,47.0,30.32,West,277,0.0,10.0,85,0.01,,,0.11,,2013-04-20 03:11:00,
2013-04-19 20:21:00,51.0,47.0,30.32,West,277,0.0,10.0,85,0.01,,,0.11,,2013-04-20 03:21:00,
2013-04-19 20:32:00,50.0,46.0,30.30,WNW,294,5.0,11.0,85,0.01,,,0.11,,2013-04-20 03:32:00,
2013-04-19 20:43:00,50.0,48.0,30.31,West,274,0.0,10.0,93,0.01,,,0.11,,2013-04-20 03:43:00,
2013-04-19 20:52:00,50.0,48.0,30.31,West,274,0.0,10.0,93,0.01,,,0.11,,2013-04-20 03:52:00,
2013-04-19 21:02:00,50.0,46.0,30.32,West,280,0.0,13.0,86,0.00,,,0.11,,2013-04-20 04:02:00,
2013-04-19 21:12:00,50.0,47.0,30.32,WNW,288,7.0,9.0,89,0.00,,,0.11,,2013-04-20 04:12:00,
2013-04-19 21:22:00,50.0,47.0,30.32,WNW,288,7.0,9.0,89,0.00,,,0.11,,2013-04-20 04:22:00,
2013-04-19 21:32:00,50.0,47.0,30.32,North,0,0.0,9.0,89,0.00,,,0.11,,2013-04-20 04:32:00,
2013-04-19 21:42:00,50.0,47.0,30.32,North,0,0.0,9.0,89,0.00,,,0.11,,2013-04-20 04:42:00,
2013-04-19 21:52:00,50.0,44.0,30.32,WNW,295,9.0,11.0,81,0.01,,,0.11,,2013-04-20 04:52:00,
2013-04-19 22:01:00,50.0,45.0,30.33,WNW,295,8.0,12.0,84,0.01,,,0.12,,2013-04-20 05:01:00,
2013-04-19 22:12:00,50.0,45.0,30.32,WNW,303,12.0,15.0,84,0.01,,,0.12,,2013-04-20 05:12:00,
2013-04-19 22:21:00,50.0,45.0,30.32,WNW,303,12.0,15.0,84,0.01,,,0.12,,2013-04-20 05:21:00,
2013-04-19 22:32:00,50.0,46.0,30.33,NW,309,12.0,15.0,85,0.01,,,0.12,,2013-04-20 05:32:00,
2013-04-19 22:42:00,50.0,46.0,30.33,NW,309,12.0,15.0,85,0.01,,,0.12,,2013-04-20 05:42:00,
2013-04-19 22:52:00,50.0,45.0,30.33,NW,309,11.0,16.0,84,0.01,,,0.12,,2013-04-20 05:52:00,
2013-04-19 23:01:00,50.0,47.0,30.33,WNW,302,12.0,15.0,88,0.01,,,0.13,,2013-04-20 06:01:00,
2013-04-19 23:12:00,50.0,47.0,30.33,WNW,302,12.0,15.0,88,0.01,,,0.13,,2013-04-20 06:12:00,
2013-04-19 23:21:00,49.0,46.0,30.32,WNW,299,11.0,17.0,89,0.01,,,0.13,,2013-04-20 06:21:00,
2013-04-19 23:31:00,49.0,46.0,30.32,WNW,296,13.0,15.0,91,0.01,,,0.13,,2013-04-20 06:31:00,
2013-04-19 23:42:00,49.0,46.0,30.32,WNW,296,13.0,15.0,91,0.01,,,0.13,,2013-04-20 06:42:00,
2013-04-19 23:52:00,49.0,47.0,30.32,WNW,295,13.0,15.0,93,0.01,,,0.13,,2013-04-20 06:52:00,